»·PEaware :: N53210 KLAX-KSAN

N53210 :: KLAX-KSAN

FLIGHT INFORMATION

Flight Status: Arrived
Operator: Privately registered:
United States
More flights under this callsign
Pilot: Anonymous 18558 (18558)
Aircraft: CESSNA 172 SKYHAWK
(C172)
More flights by this aircraft type
Origin: KLAX Los Angeles Intl
United States
Destination: KSAN San Diego Intl-Lindbergh
United States
More flights between these airports :: More routes between these airports
Route: +
File this flight plan on PilotEdge
Remarks: CAT 11
Altitude:
(Current/Filed)
3,500ft
Speed:
(Current/Filed)
0kts
Departed: 15-Apr-18 03:55 PM
Arrived: 15-Apr-18 05:13 PM
Distance/Time
Traveled:
95nm/1:18
Distance/Time
To Go:
Arrived

Flight Plot

Page will automatically refresh every two minutes.


Map Options




Map Legend


Flown Route
Filed Route
Departure Airport
Arrival Airport
Navaid (VOR, NDB)
Fix

Horizontal Profiles

Position Reports

Time Latitude Longitude Heading Altitude Ground
Speed
15-Apr-18 15:38 33.933900 -118.393363 1 102ft 0kts
15-Apr-18 15:39 33.933900 -118.393363 1 102ft 0kts
15-Apr-18 15:40 33.933900 -118.393363 1 102ft 0kts
15-Apr-18 15:41 33.933900 -118.393363 1 102ft 0kts
15-Apr-18 15:42 33.933900 -118.393363 1 102ft 0kts
15-Apr-18 15:43 33.933900 -118.393363 1 102ft 0kts
15-Apr-18 15:44 33.933900 -118.393363 1 102ft 0kts
15-Apr-18 15:45 33.933900 -118.393363 1 102ft 0kts
15-Apr-18 15:46 33.933900 -118.393363 1 102ft 0kts
15-Apr-18 15:47 33.933900 -118.393363 1 102ft 0kts
15-Apr-18 15:48 33.933932 -118.393363 358 102ft 2kts
15-Apr-18 15:49 33.935602 -118.387969 82 99ft 33kts
15-Apr-18 15:50 33.936435 -118.382751 356 96ft 0kts
15-Apr-18 15:51 33.936435 -118.382751 356 96ft 0kts
15-Apr-18 15:52 33.936435 -118.382751 356 96ft 0kts
15-Apr-18 15:53 33.936481 -118.382757 352 96ft 8kts
15-Apr-18 15:54 33.936473 -118.399114 271 498ft 80kts
15-Apr-18 15:55 33.935776 -118.425613 269 1538ft 79kts
15-Apr-18 15:56 33.935024 -118.453170 265 2503ft 84kts
15-Apr-18 15:57 33.933871 -118.483465 267 3202ft 90kts
15-Apr-18 15:58 33.923486 -118.509756 169 3460ft 110kts
15-Apr-18 15:59 33.891294 -118.504944 173 3463ft 120kts
15-Apr-18 16:00 33.858547 -118.500648 172 3444ft 119kts
15-Apr-18 16:01 33.830833 -118.495748 172 3532ft 125kts
15-Apr-18 16:02 33.794728 -118.490010 162 3436ft 131kts
15-Apr-18 16:03 33.774071 -118.455956 119 3489ft 129kts
15-Apr-18 16:04 33.758167 -118.416721 115 3471ft 131kts
15-Apr-18 16:05 33.741465 -118.380571 123 3397ft 114kts
15-Apr-18 16:06 33.724607 -118.349312 120 3489ft 110kts
15-Apr-18 16:07 33.707440 -118.318560 128 3523ft 111kts
15-Apr-18 16:08 33.690497 -118.286660 106 3533ft 121kts
15-Apr-18 16:09 33.680602 -118.247002 106 3437ft 121kts
15-Apr-18 16:10 33.670950 -118.209307 106 3528ft 118kts
15-Apr-18 16:11 33.661041 -118.169731 106 3512ft 123kts
15-Apr-18 16:12 33.655260 -118.128882 87 3526ft 121kts
15-Apr-18 16:13 33.652938 -118.088376 131 3466ft 125kts
15-Apr-18 16:14 33.623031 -118.067985 137 3450ft 125kts
15-Apr-18 16:15 33.596306 -118.041989 138 3468ft 127kts
15-Apr-18 16:16 33.569901 -118.014439 142 3415ft 124kts
15-Apr-18 16:17 33.542686 -117.990316 144 3480ft 120kts
15-Apr-18 16:18 33.514079 -117.969065 146 3513ft 120kts
15-Apr-18 16:19 33.487289 -117.943804 136 3484ft 121kts
15-Apr-18 16:20 33.465978 -117.913230 129 3481ft 114kts
15-Apr-18 16:21 33.442022 -117.887004 140 3479ft 122kts
15-Apr-18 16:22 33.415673 -117.860835 136 3480ft 124kts
15-Apr-18 16:23 33.388997 -117.834882 135 3487ft 124kts
15-Apr-18 16:24 33.362566 -117.808459 139 3478ft 121kts
15-Apr-18 16:25 33.336883 -117.782883 140 3418ft 120kts
15-Apr-18 16:26 33.312291 -117.757511 140 3474ft 118kts
15-Apr-18 16:27 33.287254 -117.732274 140 3466ft 118kts
15-Apr-18 16:28 33.261332 -117.708050 136 3480ft 116kts
15-Apr-18 16:29 33.236772 -117.681971 134 3469ft 116kts
15-Apr-18 16:30 33.211231 -117.658315 139 3462ft 119kts
15-Apr-18 16:31 33.185778 -117.633753 139 3489ft 117kts
15-Apr-18 16:32 33.160995 -117.608234 137 3530ft 113kts
15-Apr-18 16:33 33.135766 -117.583947 142 3439ft 123kts
15-Apr-18 16:34 33.110881 -117.558562 139 3503ft 115kts
15-Apr-18 16:35 33.087304 -117.533760 130 3462ft 97kts
15-Apr-18 16:36 33.079926 -117.509694 67 3435ft 75kts
15-Apr-18 16:37 33.087991 -117.483228 71 2911ft 114kts
15-Apr-18 16:38 33.089552 -117.449694 109 2407ft 88kts
15-Apr-18 16:39 33.077499 -117.434683 189 2505ft 54kts
15-Apr-18 16:40 33.057281 -117.438896 184 2465ft 96kts
15-Apr-18 16:41 33.049517 -117.458469 281 2426ft 92kts
15-Apr-18 16:42 33.052560 -117.488896 269 2437ft 92kts
15-Apr-18 16:43 33.049727 -117.518965 257 2482ft 92kts
15-Apr-18 16:44 33.041867 -117.548372 246 2481ft 93kts
15-Apr-18 16:45 33.029474 -117.575614 235 2481ft 93kts
15-Apr-18 16:46 33.013713 -117.598689 225 2481ft 93kts
15-Apr-18 16:47 32.993666 -117.618281 213 2481ft 93kts
15-Apr-18 16:48 32.970444 -117.628602 150 2481ft 93kts
15-Apr-18 16:49 32.967378 -117.607756 81 2377ft 101kts
15-Apr-18 16:50 32.969915 -117.587393 80 3321ft 51kts
15-Apr-18 16:51 32.972621 -117.568957 79 3333ft 107kts
15-Apr-18 16:52 32.977852 -117.534210 81 3358ft 112kts
15-Apr-18 16:53 32.982516 -117.496966 80 3304ft 108kts
15-Apr-18 16:54 32.986873 -117.461127 77 3367ft 111kts
15-Apr-18 16:55 32.991870 -117.424187 79 3302ft 112kts
15-Apr-18 16:56 32.995547 -117.387632 81 3319ft 111kts
15-Apr-18 16:57 32.998878 -117.351049 100 3284ft 115kts
15-Apr-18 16:58 32.977332 -117.327494 162 3342ft 112kts
15-Apr-18 16:59 32.948643 -117.316518 161 3484ft 109kts
15-Apr-18 17:00 32.923894 -117.303440 158 4065ft 87kts
15-Apr-18 17:01 32.902765 -117.292039 152 4774ft 85kts
15-Apr-18 17:02 32.876081 -117.276009 158 3584ft 102kts
15-Apr-18 17:03 32.855345 -117.266049 159 3459ft 71kts
15-Apr-18 17:04 32.834275 -117.254124 153 3490ft 97kts
15-Apr-18 17:05 32.810148 -117.241021 160 3518ft 97kts
15-Apr-18 17:06 32.788174 -117.223499 110 3483ft 98kts
15-Apr-18 17:07 32.784626 -117.195014 157 3434ft 95kts
15-Apr-18 17:08 32.760650 -117.186509 142 2646ft 89kts
15-Apr-18 17:09 32.750076 -117.156770 114 1429ft 106kts
15-Apr-18 17:10 32.731244 -117.148336 244 716ft 78kts
15-Apr-18 17:11 32.729642 -117.173548 284 235ft 78kts
15-Apr-18 17:12 32.734134 -117.187963 27 17ft 0kts
15-Apr-18 17:13 32.734440 -117.187592 88 17ft 11kts
15-Apr-18 17:14 32.736719 -117.184998 354 17ft 0kts
15-Apr-18 17:15 32.736719 -117.184998 354 17ft 0kts
15-Apr-18 17:16 32.736719 -117.184998 354 17ft 0kts
15-Apr-18 17:17 32.736719 -117.184998 354 17ft 0kts
15-Apr-18 17:18 32.736719 -117.184998 354 17ft 0kts
15-Apr-18 17:19 32.736719 -117.184998 354 17ft 0kts
15-Apr-18 17:20 32.736719 -117.184998 354 17ft 0kts
15-Apr-18 17:21 32.736719 -117.184998 354 17ft 0kts
15-Apr-18 17:22 32.736719 -117.184998 354 17ft 0kts
15-Apr-18 17:23 32.736719 -117.184998 354 17ft 0kts
15-Apr-18 17:24 32.736719 -117.184998 354 17ft 0kts
15-Apr-18 17:25 32.736719 -117.184998 354 17ft 0kts
15-Apr-18 17:26 32.736719 -117.184998 354 17ft 0kts

Navigation Log

Ident Type
1. KLAX Airport
2. KSAN Airport